sensor_id;sensor_type;location;lat;lon;timestamp;pressure;altitude;pressure_sealevel;temperature;humidity
50349;BME280;36250;48.740;22.174;2023-12-22T00:00:35;97872.88;;;6.99;74.84
50349;BME280;36250;48.740;22.174;2023-12-22T00:03:01;97869.34;;;6.98;75.11
50349;BME280;36250;48.740;22.174;2023-12-22T00:05:26;97879.31;;;7.03;74.94
50349;BME280;36250;48.740;22.174;2023-12-22T00:07:51;97880.13;;;7.03;74.93
50349;BME280;36250;48.740;22.174;2023-12-22T00:10:16;97871.72;;;7.05;74.92
50349;BME280;36250;48.740;22.174;2023-12-22T00:12:41;97857.91;;;7.06;74.98
50349;BME280;36250;48.740;22.174;2023-12-22T00:15:07;97857.09;;;7.06;75.02
50349;BME280;36250;48.740;22.174;2023-12-22T00:17:32;97857.91;;;7.06;74.93
50349;BME280;36250;48.740;22.174;2023-12-22T00:19:57;97855.72;;;7.08;74.66
50349;BME280;36250;48.740;22.174;2023-12-22T00:22:24;97843.28;;;7.07;74.72
50349;BME280;36250;48.740;22.174;2023-12-22T00:24:52;97827.31;;;7.11;74.51
50349;BME280;36250;48.740;22.174;2023-12-22T00:27:18;97826.50;;;7.10;74.23
50349;BME280;36250;48.740;22.174;2023-12-22T00:29:43;97823.28;;;7.08;74.37
50349;BME280;36250;48.740;22.174;2023-12-22T00:32:08;97822.47;;;7.08;74.57
50349;BME280;36250;48.740;22.174;2023-12-22T00:34:34;97829.19;;;7.10;74.46
50349;BME280;36250;48.740;22.174;2023-12-22T00:37:00;97822.97;;;7.10;74.54
50349;BME280;36250;48.740;22.174;2023-12-22T00:39:25;97815.94;;;7.14;74.23
50349;BME280;36250;48.740;22.174;2023-12-22T00:41:50;97809.97;;;7.12;74.64
50349;BME280;36250;48.740;22.174;2023-12-22T00:44:15;97820.22;;;7.15;74.67
50349;BME280;36250;48.740;22.174;2023-12-22T00:46:41;97826.97;;;7.17;74.43
50349;BME280;36250;48.740;22.174;2023-12-22T00:49:06;97826.16;;;7.17;74.44
50349;BME280;36250;48.740;22.174;2023-12-22T00:51:31;97829.72;;;7.12;74.50
50349;BME280;36250;48.740;22.174;2023-12-22T00:53:56;97833.75;;;7.15;74.90
50349;BME280;36250;48.740;22.174;2023-12-22T00:56:21;97823.78;;;7.10;75.02
50349;BME280;36250;48.740;22.174;2023-12-22T00:58:47;97825.69;;;7.10;75.18
50349;BME280;36250;48.740;22.174;2023-12-22T01:01:12;97828.13;;;7.11;75.40
50349;BME280;36250;48.740;22.174;2023-12-22T01:03:37;97822.13;;;7.14;75.38
50349;BME280;36250;48.740;22.174;2023-12-22T01:06:02;97818.53;;;7.19;75.17
50349;BME280;36250;48.740;22.174;2023-12-22T01:08:28;97807.56;;;7.10;75.07
50349;BME280;36250;48.740;22.174;2023-12-22T01:10:53;97818.28;;;7.20;75.52
50349;BME280;36250;48.740;22.174;2023-12-22T01:13:18;97807.16;;;7.22;75.72
50349;BME280;36250;48.740;22.174;2023-12-22T01:15:43;97805.56;;;7.21;75.80
50349;BME280;36250;48.740;22.174;2023-12-22T01:18:09;97796.06;;;7.23;75.49
50349;BME280;36250;48.740;22.174;2023-12-22T01:20:34;97791.16;;;7.25;75.70
50349;BME280;36250;48.740;22.174;2023-12-22T01:22:59;97783.56;;;7.27;75.46
50349;BME280;36250;48.740;22.174;2023-12-22T01:25:25;97775.97;;;7.29;75.67
50349;BME280;36250;48.740;22.174;2023-12-22T01:27:50;97761.41;;;7.25;76.05
50349;BME280;36250;48.740;22.174;2023-12-22T01:30:17;97759.72;;;7.29;75.94
50349;BME280;36250;48.740;22.174;2023-12-22T01:32:42;97747.31;;;7.28;75.58
50349;BME280;36250;48.740;22.174;2023-12-22T01:35:07;97746.50;;;7.28;75.52
50349;BME280;36250;48.740;22.174;2023-12-22T01:37:35;97748.09;;;7.29;75.58
50349;BME280;36250;48.740;22.174;2023-12-22T01:40:01;97747.88;;;7.25;75.76
50349;BME280;36250;48.740;22.174;2023-12-22T01:42:26;97739.47;;;7.27;75.65
50349;BME280;36250;48.740;22.174;2023-12-22T01:44:52;97722.72;;;7.25;75.87
50349;BME280;36250;48.740;22.174;2023-12-22T01:47:17;97710.22;;;7.29;75.69
50349;BME280;36250;48.740;22.174;2023-12-22T01:49:42;97708.63;;;7.28;75.40
50349;BME280;36250;48.740;22.174;2023-12-22T01:52:08;97714.03;;;7.28;75.58
50349;BME280;36250;48.740;22.174;2023-12-22T01:54:33;97715.34;;;7.31;75.56
50349;BME280;36250;48.740;22.174;2023-12-22T01:56:59;97726.91;;;7.36;75.41
50349;BME280;36250;48.740;22.174;2023-12-22T01:59:24;97734.25;;;7.36;75.30
50349;BME280;36250;48.740;22.174;2023-12-22T02:01:50;97748.91;;;7.29;75.16
50349;BME280;36250;48.740;22.174;2023-12-22T02:04:15;97743.44;;;7.35;75.34
50349;BME280;36250;48.740;22.174;2023-12-22T02:06:40;97725.06;;;7.32;75.13
50349;BME280;36250;48.740;22.174;2023-12-22T02:09:07;97709.44;;;7.28;75.73
50349;BME280;36250;48.740;22.174;2023-12-22T02:11:33;97701.03;;;7.30;75.33
50349;BME280;36250;48.740;22.174;2023-12-22T02:13:58;97693.41;;;7.32;75.33
50349;BME280;36250;48.740;22.174;2023-12-22T02:19:04;97679.69;;;7.28;75.41
50349;BME280;36250;48.740;22.174;2023-12-22T02:21:34;97692.31;;;7.33;75.32
50349;BME280;36250;48.740;22.174;2023-12-22T02:24:00;97695.81;;;7.34;75.39
50349;BME280;36250;48.740;22.174;2023-12-22T02:26:27;97708.25;;;7.35;75.52
50349;BME280;36250;48.740;22.174;2023-12-22T02:28:54;97734.97;;;7.41;75.17
50349;BME280;36250;48.740;22.174;2023-12-22T02:31:22;97745.22;;;7.44;75.20
50349;BME280;36250;48.740;22.174;2023-12-22T02:33:52;97743.00;;;7.46;75.30
50349;BME280;36250;48.740;22.174;2023-12-22T02:36:20;97756.78;;;7.50;75.07
50349;BME280;36250;48.740;22.174;2023-12-22T02:38:45;97748.88;;;7.53;75.06
50349;BME280;36250;48.740;22.174;2023-12-22T02:41:11;97742.69;;;7.53;75.20
50349;BME280;36250;48.740;22.174;2023-12-22T02:43:37;97742.63;;;7.58;74.66
50349;BME280;36250;48.740;22.174;2023-12-22T02:46:02;97736.09;;;7.59;74.63
50349;BME280;36250;48.740;22.174;2023-12-22T02:48:27;97740.69;;;7.58;74.63
50349;BME280;36250;48.740;22.174;2023-12-22T02:50:53;97750.38;;;7.64;74.70
50349;BME280;36250;48.740;22.174;2023-12-22T02:53:18;97748.47;;;7.65;74.71
50349;BME280;36250;48.740;22.174;2023-12-22T02:55:43;97738.97;;;7.67;74.45
50349;BME280;36250;48.740;22.174;2023-12-22T02:58:08;97752.78;;;7.66;74.90
50349;BME280;36250;48.740;22.174;2023-12-22T03:00:33;97742.19;;;7.69;74.74
50349;BME280;36250;48.740;22.174;2023-12-22T03:02:59;97739.53;;;7.64;74.49
50349;BME280;36250;48.740;22.174;2023-12-22T03:05:24;97742.44;;;7.68;74.55
50349;BME280;36250;48.740;22.174;2023-12-22T03:07:49;97745.41;;;7.71;74.75
50349;BME280;36250;48.740;22.174;2023-12-22T03:10:14;97740.78;;;7.72;74.72
50349;BME280;36250;48.740;22.174;2023-12-22T03:12:40;97736.97;;;7.73;74.36
50349;BME280;36250;48.740;22.174;2023-12-22T03:15:05;97735.00;;;7.78;74.54
50349;BME280;36250;48.740;22.174;2023-12-22T03:17:30;97724.41;;;7.82;74.53
50349;BME280;36250;48.740;22.174;2023-12-22T03:19:56;97711.97;;;7.81;74.08
50349;BME280;36250;48.740;22.174;2023-12-22T03:22:21;97704.72;;;7.76;74.81
50349;BME280;36250;48.740;22.174;2023-12-22T03:24:46;97693.31;;;7.79;74.75
50349;BME280;36250;48.740;22.174;2023-12-22T03:27:11;97664.41;;;7.75;74.67
50349;BME280;36250;48.740;22.174;2023-12-22T03:29:41;97649.31;;;7.69;74.59
50349;BME280;36250;48.740;22.174;2023-12-22T03:32:06;97661.78;;;7.70;74.57
50349;BME280;36250;48.740;22.174;2023-12-22T03:34:31;97680.19;;;7.68;74.96
50349;BME280;36250;48.740;22.174;2023-12-22T03:36:56;97694.75;;;7.72;74.78
50349;BME280;36250;48.740;22.174;2023-12-22T03:39:22;97694.97;;;7.75;74.71
50349;BME280;36250;48.740;22.174;2023-12-22T03:41:47;97695.13;;;7.84;74.22
50349;BME280;36250;48.740;22.174;2023-12-22T03:44:12;97685.31;;;7.88;74.46
50349;BME280;36250;48.740;22.174;2023-12-22T03:46:37;97681.00;;;7.87;74.17
50349;BME280;36250;48.740;22.174;2023-12-22T03:49:02;97675.06;;;7.85;74.31
50349;BME280;36250;48.740;22.174;2023-12-22T03:51:28;97680.47;;;7.85;74.67
50349;BME280;36250;48.740;22.174;2023-12-22T03:53:53;97690.22;;;7.86;74.79
50349;BME280;36250;48.740;22.174;2023-12-22T03:56:18;97689.84;;;7.92;74.27
50349;BME280;36250;48.740;22.174;2023-12-22T03:58:44;97684.34;;;7.97;73.81
50349;BME280;36250;48.740;22.174;2023-12-22T04:01:09;97679.22;;;7.96;74.18
50349;BME280;36250;48.740;22.174;2023-12-22T04:03:38;97676.28;;;7.92;74.21
50349;BME280;36250;48.740;22.174;2023-12-22T04:06:03;97684.72;;;7.91;74.07
50349;BME280;36250;48.740;22.174;2023-12-22T04:08:29;97695.56;;;7.91;74.59
50349;BME280;36250;48.740;22.174;2023-12-22T04:10:54;97720.44;;;7.93;73.80
50349;BME280;36250;48.740;22.174;2023-12-22T04:13:19;97711.66;;;7.82;74.33
50349;BME280;36250;48.740;22.174;2023-12-22T04:15:45;97719.19;;;7.85;74.01
50349;BME280;36250;48.740;22.174;2023-12-22T04:18:11;97721.78;;;7.77;74.38
50349;BME280;36250;48.740;22.174;2023-12-22T04:20:36;97711.72;;;7.59;75.29
50349;BME280;36250;48.740;22.174;2023-12-22T04:23:01;97729.97;;;7.72;74.88
50349;BME280;36250;48.740;22.174;2023-12-22T04:25:27;97744.38;;;7.67;74.76
50349;BME280;36250;48.740;22.174;2023-12-22T04:27:52;97760.19;;;7.13;77.24
50349;BME280;36250;48.740;22.174;2023-12-22T04:30:17;97786.91;;;6.67;79.19
50349;BME280;36250;48.740;22.174;2023-12-22T04:32:43;97793.47;;;6.22;80.65
50349;BME280;36250;48.740;22.174;2023-12-22T04:35:08;97825.78;;;5.93;83.03
50349;BME280;36250;48.740;22.174;2023-12-22T04:37:33;97814.47;;;5.81;83.61
50349;BME280;36250;48.740;22.174;2023-12-22T04:39:58;97815.63;;;5.60;80.89
50349;BME280;36250;48.740;22.174;2023-12-22T04:42:24;97832.94;;;5.59;83.84
50349;BME280;36250;48.740;22.174;2023-12-22T04:44:50;97828.63;;;5.48;82.71
50349;BME280;36250;48.740;22.174;2023-12-22T04:47:16;97829.56;;;5.82;83.35
50349;BME280;36250;48.740;22.174;2023-12-22T04:49:41;97815.84;;;5.74;83.36
50349;BME280;36250;48.740;22.174;2023-12-22T04:52:06;97797.63;;;8.14;77.72
50349;BME280;36250;48.740;22.174;2023-12-22T04:54:31;97808.03;;;5.67;77.52
50349;BME280;36250;48.740;22.174;2023-12-22T04:56:57;97809.06;;;5.81;78.06
50349;BME280;36250;48.740;22.174;2023-12-22T04:59:22;97810.78;;;6.16;77.94
50349;BME280;36250;48.740;22.174;2023-12-22T05:01:47;97797.81;;;6.18;75.16
50349;BME280;36250;48.740;22.174;2023-12-22T05:04:12;97797.91;;;6.42;76.27
50349;BME280;36250;48.740;22.174;2023-12-22T05:06:38;97800.56;;;6.47;77.18
50349;BME280;36250;48.740;22.174;2023-12-22T05:09:03;97796.38;;;6.65;77.50
50349;BME280;36250;48.740;22.174;2023-12-22T05:11:28;97786.25;;;6.75;77.43
50349;BME280;36250;48.740;22.174;2023-12-22T05:13:53;97780.28;;;6.78;76.50
50349;BME280;36250;48.740;22.174;2023-12-22T05:16:19;97778.56;;;6.87;76.29
50349;BME280;36250;48.740;22.174;2023-12-22T05:18:44;97779.38;;;6.88;76.08
50349;BME280;36250;48.740;22.174;2023-12-22T05:21:11;97783.66;;;6.94;76.01
50349;BME280;36250;48.740;22.174;2023-12-22T05:23:36;97766.63;;;6.93;75.60
50349;BME280;36250;48.740;22.174;2023-12-22T05:26:02;97794.00;;;6.87;75.44
50349;BME280;36250;48.740;22.174;2023-12-22T05:28:27;97797.56;;;6.82;75.33
50349;BME280;36250;48.740;22.174;2023-12-22T05:30:53;97798.19;;;6.74;74.99
50349;BME280;36250;48.740;22.174;2023-12-22T05:33:18;97800.88;;;6.74;75.03
50349;BME280;36250;48.740;22.174;2023-12-22T05:35:43;97809.00;;;6.74;75.26
50349;BME280;36250;48.740;22.174;2023-12-22T05:38:08;97811.22;;;6.67;75.14
50349;BME280;36250;48.740;22.174;2023-12-22T05:40:33;97801.50;;;6.66;75.56
50349;BME280;36250;48.740;22.174;2023-12-22T05:42:59;97797.72;;;6.67;75.46
50349;BME280;36250;48.740;22.174;2023-12-22T05:45:24;97805.56;;;6.63;75.14
50349;BME280;36250;48.740;22.174;2023-12-22T05:47:50;97794.53;;;6.60;75.02
50349;BME280;36250;48.740;22.174;2023-12-22T05:50:15;97805.38;;;6.55;74.91
50349;BME280;36250;48.740;22.174;2023-12-22T05:52:41;97813.50;;;6.55;74.92
50349;BME280;36250;48.740;22.174;2023-12-22T05:55:06;97808.09;;;6.55;74.80
50349;BME280;36250;48.740;22.174;2023-12-22T05:57:33;97808.69;;;6.47;74.87
50349;BME280;36250;48.740;22.174;2023-12-22T05:59:58;97812.75;;;6.44;74.93
50349;BME280;36250;48.740;22.174;2023-12-22T06:02:24;97809.53;;;6.42;74.67
50349;BME280;36250;48.740;22.174;2023-12-22T06:04:50;97814.44;;;6.35;74.72
50349;BME280;36250;48.740;22.174;2023-12-22T06:07:15;97812.59;;;6.31;74.63
50349;BME280;36250;48.740;22.174;2023-12-22T06:09:40;97820.72;;;6.26;74.66
50349;BME280;36250;48.740;22.174;2023-12-22T06:12:05;97831.00;;;6.19;74.60
50349;BME280;36250;48.740;22.174;2023-12-22T06:14:31;97840.78;;;6.15;74.56
50349;BME280;36250;48.740;22.174;2023-12-22T06:16:57;97834.06;;;6.07;74.89
50349;BME280;36250;48.740;22.174;2023-12-22T06:19:23;97840.81;;;6.05;74.61
50349;BME280;36250;48.740;22.174;2023-12-22T06:21:50;97847.41;;;5.88;74.99
50349;BME280;36250;48.740;22.174;2023-12-22T06:24:15;97846.88;;;5.81;75.23
50349;BME280;36250;48.740;22.174;2023-12-22T06:26:41;97855.22;;;5.80;74.86
50349;BME280;36250;48.740;22.174;2023-12-22T06:29:06;97859.59;;;5.66;75.00
50349;BME280;36250;48.740;22.174;2023-12-22T06:31:32;97849.88;;;5.70;75.22
50349;BME280;36250;48.740;22.174;2023-12-22T06:33:57;97862.84;;;5.68;75.25
50349;BME280;36250;48.740;22.174;2023-12-22T06:36:27;97864.72;;;5.67;75.27
50349;BME280;36250;48.740;22.174;2023-12-22T06:38:53;97862.06;;;5.62;75.61
50349;BME280;36250;48.740;22.174;2023-12-22T06:41:23;97867.19;;;5.59;75.40
50349;BME280;36250;48.740;22.174;2023-12-22T06:43:49;97865.31;;;5.54;75.51
50349;BME280;36250;48.740;22.174;2023-12-22T06:46:15;97860.72;;;5.60;75.83
50349;BME280;36250;48.740;22.174;2023-12-22T06:48:40;97856.41;;;5.59;75.68
50349;BME280;36250;48.740;22.174;2023-12-22T06:51:06;97859.09;;;5.59;75.34
50349;BME280;36250;48.740;22.174;2023-12-22T06:53:31;97860.44;;;5.61;75.19
50349;BME280;36250;48.740;22.174;2023-12-22T06:55:56;97862.59;;;5.64;75.22
50349;BME280;36250;48.740;22.174;2023-12-22T06:58:21;97878.50;;;5.61;75.13
50349;BME280;36250;48.740;22.174;2023-12-22T07:00:49;97882.03;;;5.61;75.03
50349;BME280;36250;48.740;22.174;2023-12-22T07:03:14;97885.81;;;5.55;75.08
50349;BME280;36250;48.740;22.174;2023-12-22T07:05:41;97892.56;;;5.53;75.02
50349;BME280;36250;48.740;22.174;2023-12-22T07:08:06;97900.94;;;5.51;74.81
50349;BME280;36250;48.740;22.174;2023-12-22T07:10:32;97895.56;;;5.46;75.11
50349;BME280;36250;48.740;22.174;2023-12-22T07:12:57;97895.56;;;5.41;75.15
50349;BME280;36250;48.740;22.174;2023-12-22T07:15:22;97899.91;;;5.37;75.05
50349;BME280;36250;48.740;22.174;2023-12-22T07:17:47;97898.25;;;5.36;74.90
50349;BME280;36250;48.740;22.174;2023-12-22T07:20:12;97891.00;;;5.31;74.95
50349;BME280;36250;48.740;22.174;2023-12-22T07:22:38;97898.56;;;5.29;75.23
50349;BME280;36250;48.740;22.174;2023-12-22T07:25:03;97913.38;;;5.32;74.85
50349;BME280;36250;48.740;22.174;2023-12-22T07:27:28;97910.41;;;5.28;74.89
50349;BME280;36250;48.740;22.174;2023-12-22T07:29:54;97913.38;;;5.32;75.46
50349;BME280;36250;48.740;22.174;2023-12-22T07:32:19;97919.84;;;5.31;75.18
50349;BME280;36250;48.740;22.174;2023-12-22T07:34:44;97926.59;;;5.33;75.23
50349;BME280;36250;48.740;22.174;2023-12-22T07:37:09;97935.50;;;5.34;75.28
50349;BME280;36250;48.740;22.174;2023-12-22T07:39:35;97949.81;;;5.35;75.22
50349;BME280;36250;48.740;22.174;2023-12-22T07:42:00;97954.91;;;5.36;75.08
50349;BME280;36250;48.740;22.174;2023-12-22T07:44:25;97974.88;;;5.40;74.91
50349;BME280;36250;48.740;22.174;2023-12-22T07:46:57;97973.78;;;5.46;74.82
50349;BME280;36250;48.740;22.174;2023-12-22T07:49:23;97988.63;;;5.59;74.83
50349;BME280;36250;48.740;22.174;2023-12-22T07:51:48;97991.00;;;5.70;75.30
50349;BME280;36250;48.740;22.174;2023-12-22T07:54:16;98001.78;;;5.80;75.24
50349;BME280;36250;48.740;22.174;2023-12-22T07:56:42;98005.56;;;5.89;75.14
50349;BME280;36250;48.740;22.174;2023-12-22T07:59:07;98001.53;;;5.92;74.69
50349;BME280;36250;48.740;22.174;2023-12-22T08:01:33;97993.44;;;5.92;74.69
50349;BME280;36250;48.740;22.174;2023-12-22T08:03:58;97994.00;;;5.89;74.65
50349;BME280;36250;48.740;22.174;2023-12-22T08:06:24;97997.47;;;5.89;74.61
50349;BME280;36250;48.740;22.174;2023-12-22T08:08:49;98005.03;;;5.92;74.38
50349;BME280;36250;48.740;22.174;2023-12-22T08:11:14;98010.72;;;5.96;74.27
50349;BME280;36250;48.740;22.174;2023-12-22T08:13:39;98022.28;;;6.07;74.60
50349;BME280;36250;48.740;22.174;2023-12-22T08:16:05;98020.63;;;6.26;74.29
50349;BME280;36250;48.740;22.174;2023-12-22T08:18:30;98024.59;;;6.38;73.89
50349;BME280;36250;48.740;22.174;2023-12-22T08:20:56;98022.38;;;6.50;74.12
50349;BME280;36250;48.740;22.174;2023-12-22T08:23:21;98015.88;;;6.61;73.81
50349;BME280;36250;48.740;22.174;2023-12-22T08:25:46;98019.06;;;6.69;73.81
50349;BME280;36250;48.740;22.174;2023-12-22T08:28:13;98014.97;;;6.76;73.80
50349;BME280;36250;48.740;22.174;2023-12-22T08:30:38;98015.50;;;6.78;73.38
50349;BME280;36250;48.740;22.174;2023-12-22T08:33:03;98020.94;;;6.73;73.40
50349;BME280;36250;48.740;22.174;2023-12-22T08:35:28;98033.91;;;6.76;73.61
50349;BME280;36250;48.740;22.174;2023-12-22T08:37:54;98041.94;;;6.91;73.43
50349;BME280;36250;48.740;22.174;2023-12-22T08:40:19;98027.81;;;6.99;73.36
50349;BME280;36250;48.740;22.174;2023-12-22T08:42:50;98039.22;;;6.96;73.34
50349;BME280;36250;48.740;22.174;2023-12-22T08:45:15;98041.88;;;7.01;73.29
50349;BME280;36250;48.740;22.174;2023-12-22T08:47:41;98054.00;;;7.09;73.12
50349;BME280;36250;48.740;22.174;2023-12-22T08:50:06;98052.50;;;7.26;72.94
50349;BME280;36250;48.740;22.174;2023-12-22T08:52:32;98051.88;;;7.40;72.89
50349;BME280;36250;48.740;22.174;2023-12-22T08:54:58;98043.66;;;7.55;72.37
50349;BME280;36250;48.740;22.174;2023-12-22T08:57:23;98050.06;;;7.64;72.46
50349;BME280;36250;48.740;22.174;2023-12-22T08:59:49;98050.50;;;7.76;72.62
50349;BME280;36250;48.740;22.174;2023-12-22T09:02:14;98047.72;;;7.86;72.01
50349;BME280;36250;48.740;22.174;2023-12-22T09:04:39;98045.47;;;7.93;72.17
50349;BME280;36250;48.740;22.174;2023-12-22T09:07:04;98052.97;;;8.01;71.61
50349;BME280;36250;48.740;22.174;2023-12-22T09:09:30;98054.84;;;8.06;70.95
50349;BME280;36250;48.740;22.174;2023-12-22T09:11:55;98065.63;;;8.11;71.04
50349;BME280;36250;48.740;22.174;2023-12-22T09:14:20;98064.25;;;8.13;70.43
50349;BME280;36250;48.740;22.174;2023-12-22T09:16:45;98062.00;;;8.20;70.92
50349;BME280;36250;48.740;22.174;2023-12-22T09:19:11;98056.13;;;8.13;70.76
50349;BME280;36250;48.740;22.174;2023-12-22T09:21:36;98054.53;;;8.07;70.68
50349;BME280;36250;48.740;22.174;2023-12-22T09:24:01;98056.22;;;8.03;70.38
50349;BME280;36250;48.740;22.174;2023-12-22T09:26:26;98055.41;;;8.03;70.34
50349;BME280;36250;48.740;22.174;2023-12-22T09:28:53;98052.97;;;8.01;70.62
50349;BME280;36250;48.740;22.174;2023-12-22T09:31:18;98051.00;;;8.12;70.44
50349;BME280;36250;48.740;22.174;2023-12-22T09:33:43;98056.00;;;8.28;70.94
50349;BME280;36250;48.740;22.174;2023-12-22T09:36:08;98055.00;;;8.43;70.81
50349;BME280;36250;48.740;22.174;2023-12-22T09:38:34;98049.94;;;8.60;70.12
50349;BME280;36250;48.740;22.174;2023-12-22T09:41:00;98058.56;;;8.62;70.38
50349;BME280;36250;48.740;22.174;2023-12-22T09:43:25;98051.31;;;8.57;70.50
50349;BME280;36250;48.740;22.174;2023-12-22T09:45:51;98055.16;;;8.51;70.22
50349;BME280;36250;48.740;22.174;2023-12-22T09:48:17;98057.66;;;8.48;70.54
50349;BME280;36250;48.740;22.174;2023-12-22T09:50:43;98061.41;;;8.52;70.45
50349;BME280;36250;48.740;22.174;2023-12-22T09:53:09;98048.16;;;8.50;70.51
50349;BME280;36250;48.740;22.174;2023-12-22T09:55:34;98045.66;;;8.54;70.18
50349;BME280;36250;48.740;22.174;2023-12-22T09:57:59;98042.38;;;8.57;70.60
50349;BME280;36250;48.740;22.174;2023-12-22T10:00:28;98045.06;;;8.57;70.32
50349;BME280;36250;48.740;22.174;2023-12-22T10:02:53;98044.84;;;8.53;70.41
50349;BME280;36250;48.740;22.174;2023-12-22T10:05:19;98047.28;;;8.55;70.17
50349;BME280;36250;48.740;22.174;2023-12-22T10:07:45;98044.78;;;8.58;69.93
50349;BME280;36250;48.740;22.174;2023-12-22T10:10:11;98044.50;;;8.60;69.95
50349;BME280;36250;48.740;22.174;2023-12-22T10:12:37;98044.25;;;8.56;69.35
50349;BME280;36250;48.740;22.174;2023-12-22T10:15:03;98042.06;;;8.58;69.56
50349;BME280;36250;48.740;22.174;2023-12-22T10:17:30;98036.63;;;8.58;69.39
50349;BME280;36250;48.740;22.174;2023-12-22T10:19:55;98037.19;;;8.61;69.38
50349;BME280;36250;48.740;22.174;2023-12-22T10:22:21;98029.84;;;8.61;69.54
50349;BME280;36250;48.740;22.174;2023-12-22T10:24:48;98029.06;;;8.61;69.41
50349;BME280;36250;48.740;22.174;2023-12-22T10:27:17;98034.69;;;8.64;69.09
50349;BME280;36250;48.740;22.174;2023-12-22T10:29:47;98024.72;;;8.59;69.47
50349;BME280;36250;48.740;22.174;2023-12-22T10:32:13;98032.84;;;8.59;69.79
50349;BME280;36250;48.740;22.174;2023-12-22T10:34:39;98031.47;;;8.62;69.58
50349;BME280;36250;48.740;22.174;2023-12-22T10:37:04;98025.66;;;8.69;69.49
50349;BME280;36250;48.740;22.174;2023-12-22T10:39:30;98026.78;;;8.68;69.71
50349;BME280;36250;48.740;22.174;2023-12-22T10:41:56;98027.28;;;8.70;69.52
50349;BME280;36250;48.740;22.174;2023-12-22T10:44:25;98023.94;;;8.78;69.52
50349;BME280;36250;48.740;22.174;2023-12-22T10:46:50;98023.34;;;8.81;69.40
50349;BME280;36250;48.740;22.174;2023-12-22T10:49:16;98027.16;;;8.80;69.13
50349;BME280;36250;48.740;22.174;2023-12-22T10:51:41;98026.06;;;8.81;68.93
50349;BME280;36250;48.740;22.174;2023-12-22T10:54:07;98036.84;;;8.86;68.68
50349;BME280;36250;48.740;22.174;2023-12-22T10:56:33;98041.09;;;8.92;67.88
50349;BME280;36250;48.740;22.174;2023-12-22T10:58:58;98040.28;;;8.91;68.06
50349;BME280;36250;48.740;22.174;2023-12-22T11:01:24;98033.09;;;9.00;68.44
50349;BME280;36250;48.740;22.174;2023-12-22T11:03:53;98020.84;;;9.03;68.20
50349;BME280;36250;48.740;22.174;2023-12-22T11:06:21;98027.34;;;9.07;67.84
50349;BME280;36250;48.740;22.174;2023-12-22T11:08:51;98031.13;;;9.24;67.50
50349;BME280;36250;48.740;22.174;2023-12-22T11:11:21;98027.31;;;9.25;67.99
50349;BME280;36250;48.740;22.174;2023-12-22T11:13:48;98013.59;;;9.36;67.72
50349;BME280;36250;48.740;22.174;2023-12-22T11:16:15;98016.41;;;9.44;67.17
50349;BME280;36250;48.740;22.174;2023-12-22T11:18:41;98013.34;;;9.32;65.87
50349;BME280;36250;48.740;22.174;2023-12-22T11:21:07;98014.69;;;9.35;66.04
50349;BME280;36250;48.740;22.174;2023-12-22T11:23:35;98009.97;;;9.40;65.43
50349;BME280;36250;48.740;22.174;2023-12-22T11:26:01;98008.59;;;9.43;65.20
50349;BME280;36250;48.740;22.174;2023-12-22T11:28:27;98005.66;;;9.39;64.68
50349;BME280;36250;48.740;22.174;2023-12-22T11:30:53;98000.66;;;9.46;64.51
50349;BME280;36250;48.740;22.174;2023-12-22T11:33:19;97997.84;;;9.51;63.35
50349;BME280;36250;48.740;22.174;2023-12-22T11:35:46;97998.66;;;9.52;62.86
50349;BME280;36250;48.740;22.174;2023-12-22T11:38:11;98007.03;;;9.55;62.69
50349;BME280;36250;48.740;22.174;2023-12-22T11:40:36;98000.63;;;9.65;62.47
50349;BME280;36250;48.740;22.174;2023-12-22T11:43:02;97994.09;;;9.79;62.31
50349;BME280;36250;48.740;22.174;2023-12-22T11:45:30;97988.28;;;9.86;62.54
50349;BME280;36250;48.740;22.174;2023-12-22T11:47:55;97994.59;;;10.14;62.46
50349;BME280;36250;48.740;22.174;2023-12-22T11:50:30;97998.50;;;10.35;61.76
50349;BME280;36250;48.740;22.174;2023-12-22T11:52:55;98008.72;;;10.29;60.13
50349;BME280;36250;48.740;22.174;2023-12-22T12:01:06;97993.78;;;10.40;58.88
50349;BME280;36250;48.740;22.174;2023-12-22T12:03:31;97997.81;;;10.43;58.66
50349;BME280;36250;48.740;22.174;2023-12-22T12:08:41;98001.91;;;10.00;57.77
50349;BME280;36250;48.740;22.174;2023-12-22T12:11:07;97995.41;;;9.82;58.27
50349;BME280;36250;48.740;22.174;2023-12-22T12:13:32;97988.34;;;9.67;57.73
50349;BME280;36250;48.740;22.174;2023-12-22T12:15:59;97980.28;;;9.62;57.43
50349;BME280;36250;48.740;22.174;2023-12-22T12:18:28;97983.69;;;9.54;58.28
50349;BME280;36250;48.740;22.174;2023-12-22T12:20:55;97994.94;;;9.48;58.46
50349;BME280;36250;48.740;22.174;2023-12-22T12:23:20;97994.28;;;9.37;58.31
50349;BME280;36250;48.740;22.174;2023-12-22T12:25:45;98000.13;;;9.44;59.24
50349;BME280;36250;48.740;22.174;2023-12-22T12:28:12;97989.69;;;9.51;59.18
50349;BME280;36250;48.740;22.174;2023-12-22T12:30:38;97985.31;;;9.55;58.37
50349;BME280;36250;48.740;22.174;2023-12-22T12:33:09;97973.34;;;10.16;58.02
50349;BME280;36250;48.740;22.174;2023-12-22T12:35:35;97977.16;;;10.55;55.08
50349;BME280;36250;48.740;22.174;2023-12-22T12:38:01;97973.31;;;10.70;53.75
50349;BME280;36250;48.740;22.174;2023-12-22T12:40:28;97976.56;;;10.45;54.70
50349;BME280;36250;48.740;22.174;2023-12-22T12:42:58;97982.25;;;10.03;55.95
50349;BME280;36250;48.740;22.174;2023-12-22T12:45:24;97983.09;;;9.71;55.63
50349;BME280;36250;48.740;22.174;2023-12-22T12:48:00;97978.56;;;9.34;57.27
50349;BME280;36250;48.740;22.174;2023-12-22T12:50:26;97977.72;;;9.20;58.19
50349;BME280;36250;48.740;22.174;2023-12-22T12:52:51;97982.78;;;9.08;58.77
50349;BME280;36250;48.740;22.174;2023-12-22T12:55:17;97983.44;;;9.00;58.67
50349;BME280;36250;48.740;22.174;2023-12-22T12:57:43;97989.84;;;8.90;58.87
50349;BME280;36250;48.740;22.174;2023-12-22T13:00:09;97995.06;;;8.87;59.48
50349;BME280;36250;48.740;22.174;2023-12-22T13:02:34;97983.69;;;9.03;59.49